Saginaw, MI

3:19 AM EST on December 29, 2014 (GMT -0500)
APRSWXNET Network Services Group | Change Station
CLOSE
Current Station
Personal Weather Station
Location: Saginaw, MI
Elevation: 637 ft
Nearby Weather Stations

Elev 637 ft 43.43 °N, 83.95 °W | Updated 10 seconds ago

Overcast
Overcast
28.4 °F
Feels Like 28 °F
N
0.0
Wind Variable Wind from NNE
Gusts 0.0 mph

Today
High -- | Low -- °F
--% Chance of Precip.
Yesterday
High -- | Low -- °F
Precip. -- in
8:07 AM 5:07 PM
First Quarter, 56% visible
Pressure 30.24 in
Visibility 10.0 miles
Clouds Overcast 4500 ft
Windchill 28 °F
Dew Point 19 °F
Humidity 67%
Rainfall 0.00 in
Snow Depth Not available.
UV 0 out of 12
Pollen .10 out of 12
Air Quality Not available.
Flu Activity Not available.
METAR KHYX 290816Z AUTO 33004KT 10SM OVC045 M02/M08 A3024 RMK AO2

More Conditions Fewer Conditions

Pressure 30.24 in
Visibility 10.0 miles
Clouds Overcast 4500 ft
Windchill 28 °F
Dew Point 19 °F
Humidity 67%
Rainfall 0.00 in
Snow Depth Not available.
UV 0 out of 12
Pollen .10 out of 12
Air Quality Not available.
Flu Activity Not available.
METAR KHYX 290816Z AUTO 33004KT 10SM OVC045 M02/M08 A3024 RMK AO2

More Conditions Fewer Conditions

10-Day Weather Forecast

Almanac

Astronomy

Dec. 29, 2014 Rise Set
Actual Time
Civil Twilight
Nautical Twilight
Astronomical Twilight
Moon
Length of Visible Light
Length of Day
Tomorrow will be .
, % of the Moon is Illuminated

Today's Extremes

State Highs State Lows

Community

WunderPhotos

Upload Photos

1,781,553 photos uploaded!

WunderBlogs® & News

Nearby

Air Quality

  Air Quality AQ Index Pollutant
Not available.

Snow Depth

Station Depth Elevation

Earthquake Activity

City Distance Mag. Time & Date
Minimum magnitude displayed is 2.5.

Coastal Water Temperatures

Place Temperature

Nearby Weather Stations